createdAt,value
2019-03-23T00:02:22.376Z,63.43
2019-03-23T00:04:53.573Z,62.69
2019-03-23T00:07:24.789Z,63.53
2019-03-23T00:09:56.009Z,63.74
2019-03-23T00:12:27.290Z,63.74
2019-03-23T00:14:58.543Z,63.19
2019-03-23T00:17:29.869Z,62.63
2019-03-23T00:20:01.076Z,62.72
2019-03-23T00:22:33.395Z,62.92
2019-03-23T00:25:04.825Z,64.24
2019-03-23T00:27:36.086Z,62.93
2019-03-23T00:30:09.460Z,63.66
2019-03-23T00:32:40.687Z,62.21
2019-03-23T00:35:11.972Z,61.78
2019-03-23T00:37:43.189Z,61.82
2019-03-23T00:40:14.401Z,61.84
2019-03-23T00:42:45.660Z,62.07
2019-03-23T00:45:16.834Z,62.07
2019-03-23T00:47:48.043Z,61.94
2019-03-23T00:50:19.400Z,62.03
2019-03-23T00:52:51.347Z,61.47
2019-03-23T00:55:22.657Z,60.08
2019-03-23T00:57:53.905Z,59.77
2019-03-23T01:00:25.178Z,60.39
2019-03-23T01:02:56.497Z,60.27
2019-03-23T01:05:27.771Z,60.95
2019-03-23T01:07:59.063Z,62.12
2019-03-23T01:10:30.339Z,60.17
2019-03-23T01:13:01.571Z,59.84
2019-03-23T01:15:32.862Z,60.38
2019-03-23T01:18:04.127Z,59.40
2019-03-23T01:20:35.429Z,59.11
2019-03-23T01:23:06.709Z,59.87
2019-03-23T01:25:37.918Z,59.17
2019-03-23T01:28:09.138Z,59.42
2019-03-23T01:30:40.415Z,59.50
2019-03-23T01:33:11.700Z,58.49
2019-03-23T01:35:43.137Z,59.82
2019-03-23T01:38:14.363Z,60.62
2019-03-23T01:40:45.608Z,60.03
2019-03-23T01:43:16.824Z,60.66
2019-03-23T01:45:48.083Z,59.59
2019-03-23T01:48:19.305Z,60.32
2019-03-23T01:50:50.566Z,60.49
2019-03-23T01:53:21.953Z,60.71
2019-03-23T01:55:53.232Z,60.67
2019-03-23T01:58:24.494Z,61.32
2019-03-23T02:00:55.727Z,60.64
2019-03-23T02:03:26.976Z,61.41
2019-03-23T02:05:58.255Z,61.61
2019-03-23T02:08:29.511Z,60.89
2019-03-23T02:11:00.706Z,60.54
2019-03-23T02:13:32.005Z,60.08
2019-03-23T02:16:03.218Z,60.85
2019-03-23T02:18:34.482Z,60.89
2019-03-23T02:21:05.753Z,61.22
2019-03-23T02:23:37.011Z,61.12
2019-03-23T02:26:08.348Z,60.89
2019-03-23T02:28:39.663Z,61.50
2019-03-23T02:31:10.931Z,60.75
2019-03-23T02:33:42.175Z,59.92
2019-03-23T02:36:13.452Z,61.58
2019-03-23T02:38:44.680Z,61.30
2019-03-23T02:41:15.957Z,61.26
2019-03-23T02:43:47.264Z,62.76
2019-03-23T02:46:18.551Z,61.96
2019-03-23T02:48:49.773Z,62.58
2019-03-23T02:51:22.319Z,62.55
2019-03-23T02:53:53.531Z,62.42
2019-03-23T02:56:24.819Z,62.65
2019-03-23T02:58:56.061Z,63.36
2019-03-23T03:01:27.401Z,63.01
2019-03-23T03:03:58.796Z,63.23
2019-03-23T03:06:30.267Z,63.44
2019-03-23T03:09:01.504Z,63.58
2019-03-23T03:11:33.906Z,62.66
2019-03-23T03:14:05.167Z,63.02
2019-03-23T03:16:36.381Z,63.05
2019-03-23T03:19:07.664Z,63.39
2019-03-23T03:21:38.970Z,63.32
2019-03-23T03:24:10.234Z,63.47
2019-03-23T03:26:41.472Z,62.13
2019-03-23T03:29:12.677Z,62.70
2019-03-23T03:31:43.898Z,62.48
2019-03-23T03:34:15.150Z,62.65
2019-03-23T03:36:46.365Z,61.56
2019-03-23T03:39:17.640Z,61.96
2019-03-23T03:41:48.860Z,61.68
2019-03-23T03:44:20.147Z,62.58
2019-03-23T03:46:51.389Z,62.97
2019-03-23T03:49:22.657Z,63.10
2019-03-23T03:51:53.793Z,63.09
2019-03-23T03:54:25.093Z,63.05
2019-03-23T03:56:56.330Z,63.00
2019-03-23T03:59:27.544Z,63.41
2019-03-23T04:01:58.697Z,63.13
2019-03-23T04:04:29.944Z,64.03
2019-03-23T04:07:02.780Z,64.08
2019-03-23T04:09:34.062Z,64.31
2019-03-23T04:12:05.450Z,65.06
2019-03-23T04:14:36.829Z,64.77
2019-03-23T04:17:08.048Z,64.83
2019-03-23T04:19:39.271Z,65.33
2019-03-23T04:22:10.624Z,64.99
2019-03-23T04:24:41.913Z,65.14
2019-03-23T04:27:13.185Z,64.96
2019-03-23T04:29:44.460Z,64.83
2019-03-23T04:32:15.691Z,64.72
2019-03-23T04:34:46.983Z,65.21
2019-03-23T04:37:18.298Z,65.10
2019-03-23T04:39:49.486Z,64.93
2019-03-23T04:42:20.787Z,65.43
2019-03-23T04:44:52.003Z,65.78
2019-03-23T04:47:23.241Z,65.39
2019-03-23T04:49:54.539Z,66.27
2019-03-23T04:52:25.763Z,66.69
2019-03-23T04:54:57.004Z,66.30
2019-03-23T04:57:28.278Z,65.98
2019-03-23T04:59:59.548Z,65.76
2019-03-23T05:02:30.834Z,66.03
2019-03-23T05:05:02.135Z,64.56
2019-03-23T05:07:33.427Z,64.94
2019-03-23T05:10:06.744Z,65.83
2019-03-23T05:12:38.105Z,66.05
2019-03-23T05:15:09.406Z,66.57
2019-03-23T05:17:40.747Z,65.41
2019-03-23T05:20:13.596Z,65.43
2019-03-23T05:22:44.887Z,65.50
2019-03-23T05:25:24.702Z,65.73
2019-03-23T05:27:57.632Z,66.22
2019-03-23T05:30:28.198Z,65.65
2019-03-23T05:32:59.271Z,65.11
2019-03-23T05:35:30.525Z,65.17
2019-03-23T05:38:01.750Z,65.41
2019-03-23T05:40:32.981Z,65.56
2019-03-23T05:43:04.259Z,65.99
2019-03-23T05:45:35.445Z,67.11
2019-03-23T05:48:06.741Z,66.56
2019-03-23T05:50:38.162Z,65.92
2019-03-23T05:53:09.371Z,65.68
2019-03-23T05:55:41.880Z,66.72
2019-03-23T05:58:13.146Z,64.72
2019-03-23T06:00:44.424Z,64.75
2019-03-23T06:03:15.705Z,64.54
2019-03-23T06:05:46.992Z,64.13
2019-03-23T06:08:18.323Z,65.52
2019-03-23T06:10:49.603Z,63.37
2019-03-23T06:13:20.847Z,63.29
2019-03-23T06:15:52.184Z,63.72
2019-03-23T06:18:23.446Z,64.51
2019-03-23T06:20:54.670Z,64.68
2019-03-23T06:23:26.013Z,64.36
2019-03-23T06:25:57.334Z,64.67
2019-03-23T06:28:28.611Z,63.16
2019-03-23T06:30:59.900Z,61.75
2019-03-23T06:33:31.144Z,60.88
2019-03-23T06:36:02.424Z,61.79
2019-03-23T06:38:33.672Z,61.62
2019-03-23T06:41:04.893Z,60.47
2019-03-23T06:43:36.224Z,58.65
2019-03-23T06:46:07.360Z,59.48
2019-03-23T06:48:38.584Z,60.10
2019-03-23T06:51:09.804Z,58.83
2019-03-23T06:53:41.049Z,59.75
2019-03-23T06:56:12.350Z,60.94
2019-03-23T06:58:43.605Z,61.27
2019-03-23T07:01:15.018Z,61.46
2019-03-23T07:03:46.373Z,62.29
2019-03-23T07:06:17.638Z,61.02
2019-03-23T07:08:49.932Z,60.04
2019-03-23T07:11:21.155Z,60.34
2019-03-23T07:13:52.425Z,62.15
2019-03-23T07:16:24.919Z,62.89
2019-03-23T07:18:56.215Z,62.87
2019-03-23T07:21:27.420Z,63.50
2019-03-23T07:23:58.747Z,62.47
2019-03-23T07:26:29.979Z,62.89
2019-03-23T07:29:01.229Z,61.63
2019-03-23T07:31:32.522Z,61.23
2019-03-23T07:34:06.080Z,59.35
2019-03-23T07:36:36.779Z,59.14
2019-03-23T07:39:08.075Z,58.26
2019-03-23T07:41:39.319Z,58.34
2019-03-23T07:44:10.614Z,57.75
2019-03-23T07:46:41.876Z,59.40
2019-03-23T07:49:13.160Z,58.58
2019-03-23T07:51:44.481Z,59.87
2019-03-23T07:54:15.779Z,59.28
2019-03-23T07:56:47.083Z,58.15
2019-03-23T07:59:18.373Z,57.76
2019-03-23T08:01:49.668Z,59.49
2019-03-23T08:04:20.970Z,59.78
2019-03-23T08:06:52.181Z,60.69
2019-03-23T08:09:24.433Z,60.95
2019-03-23T08:11:55.700Z,60.83
2019-03-23T08:14:26.979Z,61.48
2019-03-23T08:16:58.217Z,62.37
2019-03-23T08:19:29.378Z,63.18
2019-03-23T08:22:00.677Z,63.96
2019-03-23T08:24:31.976Z,63.89
2019-03-23T08:27:03.281Z,65.08
2019-03-23T08:29:34.566Z,66.06
2019-03-23T08:32:05.832Z,64.93
2019-03-23T08:34:37.135Z,63.29
2019-03-23T08:37:08.406Z,63.91
2019-03-23T08:39:48.066Z,64.54
2019-03-23T08:42:12.849Z,63.08
2019-03-23T08:44:44.175Z,62.87
2019-03-23T08:47:15.424Z,64.84
2019-03-23T08:49:46.702Z,63.95
2019-03-23T08:52:18.060Z,70.29
2019-03-23T08:54:49.397Z,72.22
2019-03-23T08:57:20.665Z,73.91
2019-03-23T08:59:51.932Z,74.65
2019-03-23T09:02:23.153Z,74.31
2019-03-23T09:04:54.488Z,74.93
2019-03-23T09:07:25.806Z,76.39
2019-03-23T09:09:59.451Z,74.89
2019-03-23T09:12:30.121Z,74.35
2019-03-23T09:15:02.558Z,72.74
2019-03-23T09:17:35.150Z,72.13
2019-03-23T09:20:09.339Z,73.71
2019-03-23T09:22:40.675Z,74.08
2019-03-23T09:25:11.961Z,74.15
2019-03-23T09:27:43.153Z,73.98
2019-03-23T09:30:14.418Z,73.51
2019-03-23T09:32:46.763Z,73.82
2019-03-23T09:35:18.013Z,75.02
2019-03-23T09:37:49.244Z,72.93
2019-03-23T09:40:20.472Z,71.15
2019-03-23T09:42:51.754Z,70.83
2019-03-23T09:45:23.038Z,69.66
2019-03-23T09:47:54.312Z,68.76
2019-03-23T09:50:25.530Z,69.38
2019-03-23T09:52:56.739Z,69.96
2019-03-23T09:55:28.793Z,67.61
2019-03-23T09:58:00.328Z,67.96
2019-03-23T10:00:31.578Z,66.09
2019-03-23T10:03:02.888Z,67.10
2019-03-23T10:05:35.348Z,71.97
2019-03-23T10:08:06.647Z,72.77
2019-03-23T10:10:38.076Z,73.25
2019-03-23T10:13:09.392Z,72.75
2019-03-23T10:15:40.585Z,71.37
2019-03-23T10:18:11.922Z,69.07
2019-03-23T10:20:43.201Z,68.92
2019-03-23T10:23:14.469Z,68.74
2019-03-23T10:25:45.751Z,69.19
2019-03-23T10:28:16.974Z,68.93
2019-03-23T10:30:48.254Z,68.13
2019-03-23T10:33:19.474Z,67.17
2019-03-23T10:35:51.958Z,66.46
2019-03-23T10:38:23.229Z,65.68
2019-03-23T10:40:54.488Z,66.26
2019-03-23T10:43:26.542Z,66.30
2019-03-23T10:45:57.120Z,64.40
2019-03-23T10:48:28.199Z,64.60
2019-03-23T10:50:59.490Z,64.73
2019-03-23T10:53:30.769Z,65.05
2019-03-23T10:56:02.035Z,64.76
2019-03-23T10:58:33.716Z,66.45
2019-03-23T11:01:04.990Z,66.45
2019-03-23T11:03:38.242Z,66.69
2019-03-23T11:06:09.628Z,67.63
2019-03-23T11:08:40.981Z,68.65
2019-03-23T11:11:12.350Z,68.44
2019-03-23T11:13:50.372Z,68.83
2019-03-23T11:16:22.263Z,68.38
2019-03-23T11:18:53.489Z,68.36
2019-03-23T11:21:24.799Z,67.03
2019-03-23T11:23:56.070Z,66.78
2019-03-23T11:26:30.697Z,66.44
2019-03-23T11:29:01.905Z,66.73
2019-03-23T11:31:33.140Z,65.57
2019-03-23T11:34:04.386Z,66.99
2019-03-23T11:36:35.696Z,65.24
2019-03-23T11:39:07.757Z,65.29
2019-03-23T11:41:38.997Z,63.06
2019-03-23T11:44:13.315Z,63.44
2019-03-23T11:46:44.578Z,64.65
2019-03-23T11:49:15.914Z,63.53
2019-03-23T11:51:47.082Z,64.48
2019-03-23T11:54:20.557Z,63.74
2019-03-23T11:56:51.809Z,62.02
2019-03-23T11:59:24.928Z,61.71
2019-03-23T12:01:55.967Z,62.10
2019-03-23T12:04:27.235Z,61.35
2019-03-23T12:06:58.522Z,61.24
2019-03-23T12:09:29.707Z,61.63
2019-03-23T12:12:01.015Z,61.62
2019-03-23T12:14:32.313Z,62.33
2019-03-23T12:17:03.550Z,63.32
2019-03-23T12:19:34.878Z,63.17
2019-03-23T12:22:06.271Z,62.53
2019-03-23T12:24:37.592Z,61.88
2019-03-23T12:27:08.975Z,61.42
2019-03-23T12:29:40.201Z,61.89
2019-03-23T12:32:11.440Z,62.22
2019-03-23T12:34:42.642Z,62.99
2019-03-23T12:37:13.891Z,60.87
2019-03-23T12:39:45.899Z,61.66
2019-03-23T12:42:17.114Z,61.24
2019-03-23T12:44:48.348Z,61.61
2019-03-23T12:47:19.582Z,61.84
2019-03-23T12:49:50.860Z,62.46
2019-03-23T12:52:22.089Z,61.33
2019-03-23T12:54:53.300Z,60.24
2019-03-23T12:57:24.606Z,59.46
2019-03-23T12:59:55.796Z,59.74
2019-03-23T13:02:28.039Z,60.43
2019-03-23T13:04:59.315Z,60.35
2019-03-23T13:07:30.506Z,60.59
2019-03-23T13:10:02.809Z,59.99
2019-03-23T13:12:34.042Z,59.64
2019-03-23T13:15:08.495Z,58.27
2019-03-23T13:17:39.782Z,58.16
2019-03-23T13:20:11.540Z,59.83
2019-03-23T13:22:42.945Z,60.39
2019-03-23T13:25:14.215Z,61.02
2019-03-23T13:27:45.579Z,60.23
2019-03-23T13:30:18.003Z,60.68
2019-03-23T13:32:49.303Z,60.65
2019-03-23T13:35:20.459Z,60.43
2019-03-23T13:37:51.797Z,61.44
2019-03-23T13:40:22.786Z,60.76
2019-03-23T13:42:54.055Z,61.37
2019-03-23T13:45:25.334Z,60.96
2019-03-23T13:47:56.497Z,60.87
2019-03-23T13:50:29.381Z,60.48
2019-03-23T13:53:00.522Z,60.49
2019-03-23T13:55:33.853Z,60.66
2019-03-23T13:58:09.798Z,61.18
2019-03-23T14:00:41.082Z,61.34
2019-03-23T14:03:13.484Z,61.15
2019-03-23T14:05:44.712Z,61.91
2019-03-23T14:08:15.774Z,61.88
2019-03-23T14:10:47.038Z,62.15
2019-03-23T14:13:18.241Z,62.24
2019-03-23T14:15:49.432Z,62.72
2019-03-23T14:18:20.667Z,62.93
2019-03-23T14:20:51.794Z,62.80
2019-03-23T14:23:23.066Z,63.51
2019-03-23T14:25:54.206Z,63.59
2019-03-23T14:28:25.591Z,64.20
2019-03-23T14:30:56.791Z,63.12
2019-03-23T14:33:28.019Z,63.78
2019-03-23T14:35:59.161Z,64.13
2019-03-23T14:38:30.361Z,63.69
2019-03-23T14:41:01.588Z,63.97
2019-03-23T14:43:32.857Z,64.22
2019-03-23T14:46:04.029Z,64.46
2019-03-23T14:48:35.369Z,65.01
2019-03-23T14:51:06.492Z,64.19
2019-03-23T14:53:37.886Z,64.66
2019-03-23T14:56:09.090Z,64.39
2019-03-23T14:58:40.358Z,64.57
2019-03-23T15:01:11.532Z,64.48
2019-03-23T15:03:42.758Z,65.58
2019-03-23T15:06:13.995Z,65.21
2019-03-23T15:08:45.258Z,64.52
2019-03-23T15:11:16.486Z,65.19
2019-03-23T15:13:47.717Z,65.50
2019-03-23T15:16:18.986Z,65.58
2019-03-23T15:18:50.261Z,65.48
2019-03-23T15:21:22.375Z,65.20
2019-03-23T15:23:53.658Z,65.88
2019-03-23T15:26:24.876Z,66.62
2019-03-23T15:28:56.158Z,66.35
2019-03-23T15:31:27.372Z,66.56
2019-03-23T15:33:58.655Z,65.84
2019-03-23T15:36:29.945Z,66.16
2019-03-23T15:39:01.099Z,66.95
2019-03-23T15:41:33.319Z,66.88
2019-03-23T15:44:04.626Z,66.85
2019-03-23T15:46:35.874Z,67.16
2019-03-23T15:49:07.062Z,67.58
2019-03-23T15:51:38.381Z,66.98
2019-03-23T15:54:09.614Z,67.77
2019-03-23T15:56:40.884Z,67.77
2019-03-23T15:59:12.088Z,68.06
2019-03-23T16:01:43.242Z,69.13
2019-03-23T16:04:14.495Z,69.24
2019-03-23T16:06:45.757Z,68.87
2019-03-23T16:09:17.053Z,69.85
2019-03-23T16:11:48.306Z,69.89
2019-03-23T16:14:19.541Z,69.82
2019-03-23T16:16:51.401Z,70.15
2019-03-23T16:19:22.719Z,70.52
2019-03-23T16:21:53.908Z,71.31
2019-03-23T16:24:25.088Z,71.90
2019-03-23T16:26:56.299Z,71.58
2019-03-23T16:29:27.431Z,71.94
2019-03-23T16:31:58.693Z,71.49
2019-03-23T16:34:29.881Z,72.41
2019-03-23T16:37:03.176Z,72.08
2019-03-23T16:39:34.393Z,72.02
2019-03-23T16:42:05.662Z,72.49
2019-03-23T16:44:36.941Z,71.75
2019-03-23T16:47:08.273Z,71.82
2019-03-23T16:49:39.419Z,71.76
2019-03-23T16:52:10.613Z,71.10
2019-03-23T16:54:41.941Z,71.32
2019-03-23T16:57:13.230Z,70.99
2019-03-23T16:59:44.364Z,70.77
2019-03-23T17:02:15.618Z,70.62
2019-03-23T17:04:46.853Z,69.82
2019-03-23T17:07:19.336Z,69.23
2019-03-23T17:10:02.583Z,68.68
2019-03-23T17:12:33.850Z,69.09
2019-03-23T17:15:08.363Z,68.88
2019-03-23T17:17:42.495Z,69.19
2019-03-23T17:20:15.300Z,68.70
2019-03-23T17:22:47.139Z,68.89
2019-03-23T17:25:18.391Z,68.86
2019-03-23T17:27:49.645Z,69.38
2019-03-23T17:30:20.921Z,69.81
2019-03-23T17:32:53.756Z,69.45
2019-03-23T17:35:28.071Z,69.80
2019-03-23T17:38:00.664Z,70.32
2019-03-23T17:40:38.473Z,69.94
2019-03-23T17:43:10.918Z,70.29
2019-03-23T17:45:43.773Z,69.64
2019-03-23T17:48:17.243Z,69.32
2019-03-23T17:50:50.046Z,69.94
2019-03-23T17:53:27.542Z,68.98
2019-03-23T17:55:58.841Z,69.10
2019-03-23T17:58:36.579Z,69.12
2019-03-23T18:01:19.031Z,69.14
2019-03-23T18:03:42.738Z,69.11
2019-03-23T18:06:17.061Z,69.17
2019-03-23T18:08:52.558Z,68.83
2019-03-23T18:11:24.366Z,68.71
2019-03-23T18:13:57.059Z,68.52
2019-03-23T18:16:42.223Z,68.55
2019-03-23T18:19:12.804Z,68.64
2019-03-23T18:21:44.774Z,69.19
2019-03-23T18:24:16.665Z,69.28
2019-03-23T18:26:49.788Z,70.07
2019-03-23T18:29:22.526Z,69.24
2019-03-23T18:32:00.997Z,69.55
2019-03-23T18:34:37.384Z,70.13
2019-03-23T18:37:15.683Z,69.76
2019-03-23T18:39:51.457Z,69.80
2019-03-23T18:42:26.686Z,69.54
2019-03-23T18:44:58.220Z,70.33
2019-03-23T18:47:33.708Z,69.68
2019-03-23T18:50:08.652Z,69.39
2019-03-23T18:52:40.265Z,69.40
2019-03-23T18:55:11.459Z,69.05
2019-03-23T18:57:45.972Z,69.31
2019-03-23T19:00:37.672Z,69.59
2019-03-23T19:03:10.859Z,69.07
2019-03-23T19:05:44.960Z,68.56
2019-03-23T19:08:20.021Z,69.49
2019-03-23T19:10:53.881Z,68.97
2019-03-23T19:13:37.501Z,69.31
2019-03-23T19:16:05.012Z,69.73
2019-03-23T19:18:37.982Z,69.83
2019-03-23T19:21:09.988Z,69.94
2019-03-23T19:23:44.419Z,69.99
2019-03-23T19:26:17.212Z,70.20
2019-03-23T19:28:50.375Z,69.86
2019-03-23T19:31:25.215Z,70.69
2019-03-23T19:33:57.843Z,70.15
2019-03-23T19:36:30.482Z,70.86
2019-03-23T19:39:06.904Z,71.17
2019-03-23T19:41:38.186Z,70.79
2019-03-23T19:44:11.446Z,71.62
2019-03-23T19:46:45.438Z,71.42
2019-03-23T19:49:18.195Z,72.10
2019-03-23T19:51:54.444Z,71.51
2019-03-23T19:54:29.951Z,71.62
2019-03-23T19:57:06.278Z,71.55
2019-03-23T19:59:43.198Z,71.57
2019-03-23T20:02:17.540Z,70.87
2019-03-23T20:04:51.895Z,71.62
2019-03-23T20:07:32.713Z,72.13
2019-03-23T20:10:10.341Z,71.42
2019-03-23T20:12:41.942Z,71.23
2019-03-23T20:15:13.252Z,70.97
2019-03-23T20:17:44.592Z,71.66
2019-03-23T20:20:16.173Z,70.96
2019-03-23T20:22:50.131Z,70.86
2019-03-23T20:25:22.899Z,71.51
2019-03-23T20:27:54.507Z,71.87
2019-03-23T20:30:27.252Z,71.58
2019-03-23T20:32:58.540Z,71.48
2019-03-23T20:35:29.847Z,71.64
2019-03-23T20:38:02.087Z,72.05
2019-03-23T20:40:34.897Z,71.16
2019-03-23T20:43:06.142Z,71.71
2019-03-23T20:45:37.371Z,71.77
2019-03-23T20:48:09.661Z,71.51
2019-03-23T20:50:40.888Z,71.75
2019-03-23T20:53:13.988Z,72.71
2019-03-23T20:55:45.307Z,72.04
2019-03-23T20:58:16.730Z,71.49
2019-03-23T21:00:48.140Z,72.35
2019-03-23T21:03:19.505Z,71.77
2019-03-23T21:05:50.736Z,71.25
2019-03-23T21:08:21.971Z,71.44
2019-03-23T21:10:53.253Z,70.92
2019-03-23T21:13:24.495Z,71.22
2019-03-23T21:15:55.905Z,70.65
2019-03-23T21:18:27.294Z,70.93
2019-03-23T21:20:58.677Z,70.41
2019-03-23T21:23:31.089Z,70.57
2019-03-23T21:26:02.799Z,71.24
2019-03-23T21:28:34.075Z,71.42
2019-03-23T21:31:05.355Z,71.02
2019-03-23T21:33:38.945Z,70.92
2019-03-23T21:36:09.625Z,71.13
2019-03-23T21:38:40.966Z,70.81
2019-03-23T21:41:13.973Z,71.10
2019-03-23T21:43:45.290Z,71.19
2019-03-23T21:46:16.724Z,71.55
2019-03-23T21:48:48.008Z,71.48
2019-03-23T21:51:19.357Z,71.81
2019-03-23T21:53:50.729Z,71.78
2019-03-23T21:56:22.036Z,71.30
2019-03-23T21:58:53.330Z,71.68
2019-03-23T22:01:24.553Z,71.24
2019-03-23T22:03:55.937Z,70.71
2019-03-23T22:06:27.258Z,71.08
2019-03-23T22:08:58.583Z,71.13
2019-03-23T22:11:29.947Z,71.85
2019-03-23T22:14:01.325Z,72.08
2019-03-23T22:16:32.709Z,71.68
2019-03-23T22:19:04.028Z,71.05
2019-03-23T22:21:35.437Z,71.44
2019-03-23T22:24:06.817Z,71.89
2019-03-23T22:26:38.216Z,71.84
2019-03-23T22:29:09.550Z,71.74
2019-03-23T22:31:40.940Z,71.72
2019-03-23T22:34:12.328Z,72.42
2019-03-23T22:36:43.707Z,72.04
2019-03-23T22:39:15.116Z,72.64
2019-03-23T22:41:46.457Z,71.96
2019-03-23T22:44:17.787Z,72.55
2019-03-23T22:46:49.084Z,73.04
2019-03-23T22:49:20.495Z,72.97
2019-03-23T22:51:51.891Z,72.60
2019-03-23T22:54:23.219Z,72.98
2019-03-23T22:56:54.675Z,72.67
2019-03-23T22:59:26.054Z,72.82
2019-03-23T23:01:57.550Z,72.49
2019-03-23T23:04:28.894Z,73.00
2019-03-23T23:07:01.221Z,73.09
2019-03-23T23:09:32.541Z,72.95
2019-03-23T23:12:03.913Z,73.41
2019-03-23T23:14:35.351Z,73.32
2019-03-23T23:17:06.670Z,73.54
2019-03-23T23:19:38.033Z,72.97
2019-03-23T23:22:09.375Z,72.99
2019-03-23T23:24:40.706Z,73.26
2019-03-23T23:27:12.093Z,73.55
2019-03-23T23:29:43.491Z,73.43
2019-03-23T23:32:14.882Z,73.75
2019-03-23T23:34:46.205Z,73.53
2019-03-23T23:37:17.521Z,73.60
2019-03-23T23:39:48.908Z,73.94
2019-03-23T23:42:20.299Z,73.36
2019-03-23T23:44:51.665Z,73.42
2019-03-23T23:47:23.068Z,73.59
2019-03-23T23:49:54.428Z,73.42
2019-03-23T23:52:25.765Z,72.84
2019-03-23T23:54:57.098Z,72.79
2019-03-23T23:57:28.276Z,72.95
2019-03-23T23:59:59.547Z,72.66
